Main page
METAR-TAF:

METAR-TAF

Airports :

Bou Saâda, Algeria

Bou Saada Airport

latitude: 35-20N, longitude: 004-12E, elevation: 461 m

Current weather observation

The report was made 21 minutes ago, at 07:00 UTC
Wind 3 kt from the South/Southwest
Temperature 3°C
Humidity 81%
Pressure 1022 hPa
Visibility 10 km or more
no clouds below 1500 m and no cumulonimbus

METAR: DAAD 220700Z 20003KT CAVOK 03/00 Q1022

Time: 08:21 (07:21 UTC)

Forecast

The report was made 14 hours and 21 minutes ago, at 17:00 UTC
Forecast valid from 21 at 18 UTC to 22 at 03 UTC
Wind 2 kt from variable directions
Visibility 10 km or more
no clouds below 1500 m and no cumulonimbus

TAF: DAAD 211700Z 2118/2203 VRB02KT CAVOK

Weather observations and forecasts of more than 4000 airports (METAR and TAF reports).

The available stations are represented by yellow and red dots on the map.

Hover mouse over dot to see the name of the station.

Then click to see weather observations and forecasts.

To change the map : click on the green buttons with a black cross to zoom in, on the green button with a dash to zoom out, or on the green arrows for adjacent maps.


METAR-TAF: